createdAt,value
2023-05-16T00:00:18.028Z,15.13
2023-05-16T00:04:20.124Z,15.12
2023-05-16T00:08:21.655Z,15.07
2023-05-16T00:12:23.224Z,15.05
2023-05-16T00:16:25.777Z,14.98
2023-05-16T00:20:28.643Z,14.98
2023-05-16T00:24:30.585Z,14.97
2023-05-16T00:28:32.418Z,14.94
2023-05-16T00:32:34.042Z,14.93
2023-05-16T00:36:36.348Z,14.87
2023-05-16T00:40:38.328Z,14.90
2023-05-16T00:44:39.882Z,14.86
2023-05-16T00:48:41.929Z,14.85
2023-05-16T00:52:43.778Z,14.80
2023-05-16T00:56:45.528Z,14.75
2023-05-16T01:00:48.800Z,14.72
2023-05-16T01:04:51.845Z,14.69
2023-05-16T01:08:53.470Z,14.69
2023-05-16T01:13:07.184Z,14.71
2023-05-16T01:17:50.798Z,14.64
2023-05-16T01:22:29.280Z,14.66
2023-05-16T01:26:32.346Z,14.66
2023-05-16T01:30:40.986Z,14.63
2023-05-16T01:34:43.131Z,14.57
2023-05-16T01:39:03.134Z,14.54
2023-05-16T01:43:10.922Z,14.45
2023-05-16T01:47:14.492Z,14.42
2023-05-16T01:51:16.864Z,14.41
2023-05-16T01:55:47.648Z,14.42
2023-05-16T01:59:49.237Z,14.36
2023-05-16T02:03:51.638Z,14.29
2023-05-16T02:07:53.678Z,14.21
2023-05-16T02:11:56.713Z,14.16
2023-05-16T02:15:59.509Z,14.16
2023-05-16T02:20:06.683Z,14.06
2023-05-16T02:24:08.221Z,14.06
2023-05-16T02:28:10.036Z,14.02
2023-05-16T02:32:11.635Z,13.93
2023-05-16T02:36:14.631Z,13.87
2023-05-16T02:40:17.425Z,13.88
2023-05-16T02:44:18.959Z,13.84
2023-05-16T02:48:20.637Z,13.79
2023-05-16T02:52:22.226Z,13.72
2023-05-16T02:56:24.018Z,13.68
2023-05-16T03:00:26.239Z,13.59
2023-05-16T03:04:27.923Z,13.57
2023-05-16T03:08:29.606Z,13.48
2023-05-16T03:12:31.610Z,13.47
2023-05-16T03:16:33.244Z,13.41
2023-05-16T03:20:34.893Z,13.36
2023-05-16T03:24:36.522Z,13.35
2023-05-16T03:28:38.080Z,13.31
2023-05-16T03:32:39.886Z,13.22
2023-05-16T03:36:41.637Z,13.24
2023-05-16T03:40:43.313Z,13.17
2023-05-16T03:44:45.567Z,13.19
2023-05-16T03:48:47.213Z,13.14
2023-05-16T03:52:49.004Z,13.09
2023-05-16T03:56:50.841Z,13.04
2023-05-16T04:00:52.405Z,13.01
2023-05-16T04:04:54.030Z,13.01
2023-05-16T04:08:55.696Z,12.99
2023-05-16T04:12:57.223Z,12.94
2023-05-16T04:16:58.946Z,12.89
2023-05-16T04:21:00.829Z,12.91
2023-05-16T04:25:02.405Z,12.95
2023-05-16T04:29:04.239Z,12.91
2023-05-16T04:33:07.176Z,12.94
2023-05-16T04:37:09.510Z,12.88
2023-05-16T04:41:11.125Z,12.91
2023-05-16T04:45:14.418Z,12.89
2023-05-16T04:49:16.239Z,12.98
2023-05-16T04:53:17.896Z,13.03
2023-05-16T04:57:19.534Z,13.04
2023-05-16T05:01:21.435Z,13.13
2023-05-16T05:05:23.355Z,13.29
2023-05-16T05:09:25.988Z,13.31
2023-05-16T05:13:27.525Z,13.36
2023-05-16T05:17:29.794Z,13.41
2023-05-16T05:21:32.165Z,13.50
2023-05-16T05:25:37.615Z,13.51
2023-05-16T05:29:39.936Z,13.51
2023-05-16T05:33:42.493Z,13.54
2023-05-16T05:37:44.033Z,13.59
2023-05-16T05:41:45.727Z,13.66
2023-05-16T05:45:47.384Z,13.63
2023-05-16T05:49:49.021Z,13.61
2023-05-16T05:53:50.708Z,13.65
2023-05-16T05:57:52.312Z,13.68
2023-05-16T06:01:53.980Z,13.68
2023-05-16T06:05:55.768Z,13.80
2023-05-16T06:09:57.419Z,13.88
2023-05-16T06:13:59.028Z,13.88
2023-05-16T06:18:00.801Z,14.02
2023-05-16T06:22:02.429Z,14.12
2023-05-16T06:26:04.387Z,14.26
2023-05-16T06:30:06.731Z,14.24
2023-05-16T06:34:08.332Z,14.41
2023-05-16T06:38:09.902Z,14.54
2023-05-16T06:42:11.686Z,14.57
2023-05-16T06:46:13.359Z,14.66
2023-05-16T06:50:15.240Z,14.46
2023-05-16T06:54:16.823Z,14.45
2023-05-16T06:58:18.568Z,14.42
2023-05-16T07:02:20.239Z,14.45
2023-05-16T07:06:22.060Z,14.41
2023-05-16T07:10:23.843Z,14.42
2023-05-16T07:14:25.453Z,14.46
2023-05-16T07:18:27.063Z,14.64
2023-05-16T07:22:28.682Z,14.67
2023-05-16T07:26:30.287Z,14.71
2023-05-16T07:30:31.940Z,14.61
2023-05-16T07:34:33.553Z,14.60
2023-05-16T07:38:35.174Z,14.52
2023-05-16T07:42:36.794Z,14.48
2023-05-16T07:46:38.575Z,14.52
2023-05-16T07:50:40.370Z,14.54
2023-05-16T07:54:42.024Z,14.54
2023-05-16T07:58:43.973Z,14.48
2023-05-16T08:02:45.861Z,14.36
2023-05-16T08:06:47.625Z,14.24
2023-05-16T08:10:49.255Z,14.24
2023-05-16T08:14:50.928Z,14.12
2023-05-16T08:18:52.600Z,13.99
2023-05-16T08:22:54.925Z,13.96
2023-05-16T08:26:56.484Z,13.86
2023-05-16T08:30:58.138Z,13.83
2023-05-16T08:35:00.335Z,13.91
2023-05-16T08:39:02.235Z,13.88
2023-05-16T08:43:04.299Z,14.05
2023-05-16T08:47:16.523Z,14.13
2023-05-16T08:51:20.402Z,14.26
2023-05-16T08:55:24.333Z,14.30
2023-05-16T08:59:26.634Z,14.64
2023-05-16T09:03:29.042Z,14.85
2023-05-16T09:07:31.153Z,15.11
2023-05-16T09:11:34.037Z,15.22
2023-05-16T09:15:37.348Z,15.22
2023-05-16T09:19:40.538Z,15.20
2023-05-16T09:23:43.607Z,15.03
2023-05-16T09:27:51.039Z,15.00
2023-05-16T09:31:52.788Z,14.67
2023-05-16T09:35:59.448Z,14.46
2023-05-16T09:40:01.005Z,14.45
2023-05-16T09:44:08.516Z,14.34
2023-05-16T09:48:13.287Z,14.21
2023-05-16T09:52:15.456Z,14.06
2023-05-16T09:56:17.069Z,13.94
2023-05-16T10:00:19.175Z,13.73
2023-05-16T10:04:20.993Z,13.91
2023-05-16T10:08:25.330Z,13.87
2023-05-16T10:12:32.950Z,14.01
2023-05-16T10:16:35.648Z,14.08
2023-05-16T10:20:38.585Z,13.99
2023-05-16T10:24:55.342Z,13.96
2023-05-16T10:28:56.971Z,14.04
2023-05-16T10:32:59.431Z,13.96
2023-05-16T10:37:01.702Z,13.81
2023-05-16T10:41:03.755Z,13.75
2023-05-16T10:45:19.716Z,13.66
2023-05-16T10:49:26.454Z,13.59
2023-05-16T10:53:35.473Z,13.68
2023-05-16T10:57:37.171Z,13.79
2023-05-16T11:01:41.359Z,13.98
2023-05-16T11:05:43.905Z,14.13
2023-05-16T11:09:46.493Z,14.21
2023-05-16T11:13:55.503Z,14.31
2023-05-16T11:18:17.270Z,14.31
2023-05-16T11:22:18.872Z,14.38
2023-05-16T11:26:21.122Z,14.29
2023-05-16T11:30:22.994Z,14.30
2023-05-16T11:34:24.946Z,14.42
2023-05-16T11:38:27.875Z,14.26
2023-05-16T11:42:35.635Z,14.48
2023-05-16T11:46:40.967Z,14.54
2023-05-16T11:50:42.578Z,14.61
2023-05-16T11:54:44.236Z,14.34
2023-05-16T11:58:45.957Z,14.19
2023-05-16T12:02:49.185Z,14.16
2023-05-16T12:06:59.743Z,14.05
2023-05-16T12:11:01.595Z,13.87
2023-05-16T12:15:04.780Z,13.81
2023-05-16T12:19:07.080Z,13.73
2023-05-16T12:23:12.757Z,13.80
2023-05-16T12:27:22.091Z,13.94
2023-05-16T12:31:31.687Z,13.98
2023-05-16T12:35:35.354Z,13.99
2023-05-16T12:39:38.627Z,14.09
2023-05-16T12:43:40.365Z,14.02
2023-05-16T12:47:41.918Z,14.21
2023-05-16T12:51:52.682Z,14.48
2023-05-16T12:55:54.323Z,15.20
2023-05-16T12:59:56.034Z,15.56
2023-05-16T13:03:58.032Z,16.30
2023-05-16T13:07:59.901Z,16.87
2023-05-16T13:12:01.613Z,16.80
2023-05-16T13:16:04.328Z,16.27
2023-05-16T13:20:10.405Z,16.08
2023-05-16T13:24:12.354Z,16.06
2023-05-16T13:28:14.121Z,15.86
2023-05-16T13:32:18.448Z,15.67
2023-05-16T13:36:20.083Z,15.51
2023-05-16T13:40:21.697Z,15.64
2023-05-16T13:44:23.422Z,15.85
2023-05-16T13:48:25.205Z,15.74
2023-05-16T13:52:26.895Z,15.96
2023-05-16T13:56:28.497Z,16.25
2023-05-16T14:00:43.509Z,16.40
2023-05-16T14:04:49.080Z,16.59
2023-05-16T14:08:51.785Z,16.81
2023-05-16T14:12:53.962Z,17.15
2023-05-16T14:16:55.536Z,17.53
2023-05-16T14:20:57.249Z,17.73
2023-05-16T14:24:58.920Z,17.94
2023-05-16T14:29:00.754Z,17.79
2023-05-16T14:33:03.409Z,17.87
2023-05-16T14:37:05.439Z,18.47
2023-05-16T14:41:07.283Z,18.84
2023-05-16T14:45:09.654Z,18.86
2023-05-16T14:49:11.347Z,19.07
2023-05-16T14:53:13.123Z,18.93
2023-05-16T14:57:14.736Z,18.46
2023-05-16T15:01:16.687Z,18.44
2023-05-16T15:05:19.014Z,18.53
2023-05-16T15:09:20.973Z,18.47
2023-05-16T15:13:22.767Z,17.83
2023-05-16T15:17:24.619Z,18.20
2023-05-16T15:21:27.157Z,18.86
2023-05-16T15:25:29.381Z,19.15
2023-05-16T15:29:32.195Z,19.35
2023-05-16T15:33:33.817Z,19.23
2023-05-16T15:37:35.882Z,18.84
2023-05-16T15:45:45.626Z,19.16
2023-05-16T15:49:47.337Z,19.55
2023-05-16T15:53:49.095Z,20.00
2023-05-16T15:57:50.866Z,20.17
2023-05-16T16:01:52.797Z,19.53
2023-05-16T16:05:54.571Z,18.89
2023-05-16T16:09:58.332Z,18.56
2023-05-16T16:14:00.068Z,18.35
2023-05-16T16:18:01.761Z,18.10
2023-05-16T16:22:03.564Z,18.23
2023-05-16T16:26:06.547Z,18.01
2023-05-16T16:30:09.862Z,18.28
2023-05-16T16:34:11.431Z,17.99
2023-05-16T16:38:13.066Z,17.66
2023-05-16T16:42:14.686Z,17.25
2023-05-16T16:46:16.345Z,17.21
2023-05-16T16:50:18.047Z,17.62
2023-05-16T16:54:20.858Z,17.73
2023-05-16T16:58:22.484Z,17.70
2023-05-16T17:02:24.171Z,17.35
2023-05-16T17:06:26.348Z,17.12
2023-05-16T17:10:28.011Z,16.96
2023-05-16T17:14:29.645Z,17.02
2023-05-16T17:18:34.467Z,16.82
2023-05-16T17:22:36.807Z,16.82
2023-05-16T17:26:39.150Z,16.65
2023-05-16T17:30:40.819Z,16.52
2023-05-16T17:34:42.545Z,16.52
2023-05-16T17:38:44.183Z,16.63
2023-05-16T17:42:46.397Z,16.59
2023-05-16T17:46:48.116Z,16.57
2023-05-16T17:50:50.429Z,16.50
2023-05-16T17:54:52.538Z,16.34
2023-05-16T17:58:54.325Z,16.30
2023-05-16T18:02:55.998Z,16.25
2023-05-16T18:06:58.021Z,16.13
2023-05-16T18:10:59.815Z,16.04
2023-05-16T18:15:01.474Z,15.99
2023-05-16T18:19:04.846Z,15.91
2023-05-16T18:23:08.185Z,15.84
2023-05-16T18:27:09.892Z,15.85
2023-05-16T18:31:12.239Z,15.77
2023-05-16T18:35:13.934Z,15.73
2023-05-16T18:39:15.665Z,15.58
2023-05-16T18:43:17.636Z,15.52
2023-05-16T18:47:20.755Z,15.48
2023-05-16T18:51:22.550Z,15.44
2023-05-16T18:55:24.834Z,15.44
2023-05-16T18:59:26.448Z,15.41
2023-05-16T19:03:28.206Z,15.38
2023-05-16T19:07:29.874Z,15.41
2023-05-16T19:11:31.556Z,15.38
2023-05-16T19:15:34.445Z,15.30
2023-05-16T19:19:36.650Z,15.30
2023-05-16T19:23:38.751Z,15.25
2023-05-16T19:27:40.392Z,15.19
2023-05-16T19:31:42.045Z,15.20
2023-05-16T19:35:43.741Z,15.19
2023-05-16T19:39:45.412Z,15.19
2023-05-16T19:43:47.044Z,15.13
2023-05-16T19:47:48.719Z,15.07
2023-05-16T19:51:50.389Z,14.97
2023-05-16T19:55:52.350Z,14.94
2023-05-16T19:59:54.372Z,14.87
2023-05-16T20:03:56.203Z,14.86
2023-05-16T20:07:57.893Z,14.85
2023-05-16T20:11:59.909Z,14.82
2023-05-16T20:16:03.694Z,14.75
2023-05-16T20:20:06.355Z,14.71
2023-05-16T20:24:08.001Z,14.57
2023-05-16T20:28:09.726Z,14.46
2023-05-16T20:32:11.311Z,14.36
2023-05-16T20:36:13.078Z,14.27
2023-05-16T20:40:14.773Z,14.23
2023-05-16T20:44:16.584Z,14.13
2023-05-16T20:48:18.248Z,14.09
2023-05-16T20:52:21.894Z,14.02
2023-05-16T20:56:23.787Z,13.98
2023-05-16T21:00:25.482Z,13.86
2023-05-16T21:04:27.292Z,13.84
2023-05-16T21:08:28.950Z,13.79
2023-05-16T21:12:32.086Z,13.72
2023-05-16T21:16:34.075Z,13.66
2023-05-16T21:20:35.684Z,13.61
2023-05-16T21:24:37.464Z,13.50
2023-05-16T21:28:42.762Z,13.35
2023-05-16T21:32:53.022Z,13.27
2023-05-16T21:36:54.856Z,13.21
2023-05-16T21:40:58.009Z,13.12
2023-05-16T21:44:59.685Z,13.03
2023-05-16T21:49:01.306Z,13.04
2023-05-16T21:53:03.044Z,12.94
2023-05-16T21:57:04.933Z,12.84
2023-05-16T22:01:06.625Z,12.77
2023-05-16T22:05:09.023Z,12.69
2023-05-16T22:09:11.744Z,12.58
2023-05-16T22:13:13.371Z,12.51
2023-05-16T22:17:15.341Z,12.46
2023-05-16T22:21:17.088Z,12.38
2023-05-16T22:25:18.769Z,12.36
2023-05-16T22:29:20.457Z,12.30
2023-05-16T22:33:23.502Z,12.25
2023-05-16T22:37:26.826Z,12.19
2023-05-16T22:41:31.161Z,12.13
2023-05-16T22:45:32.800Z,12.05
2023-05-16T22:49:34.342Z,12.05
2023-05-16T22:53:36.100Z,12.05
2023-05-16T22:57:37.684Z,12.04
2023-05-16T23:01:39.261Z,12.01
2023-05-16T23:05:40.822Z,12.00
2023-05-16T23:09:42.552Z,12.00
2023-05-16T23:13:44.170Z,11.93
2023-05-16T23:17:46.063Z,11.93
2023-05-16T23:21:47.770Z,11.82
2023-05-16T23:25:49.442Z,11.75
2023-05-16T23:29:51.423Z,11.64
2023-05-16T23:33:53.148Z,11.56
2023-05-16T23:37:54.866Z,11.44
2023-05-16T23:41:56.496Z,11.39
2023-05-16T23:45:58.073Z,11.28
2023-05-16T23:49:59.743Z,11.20
2023-05-16T23:54:01.301Z,11.20
2023-05-16T23:58:02.937Z,11.13
